This is the latest recevied weather packets stored in our database for station/object N6XE. If no packets are shown the sender has not sent any weather packets the latest 10 day(s).
| Time | Temp. | Humidity | Pressure | Rain* | Wind** | Luminosity | Snow |
|---|---|---|---|---|---|---|---|
| 1777619152 | 16.11° C | 68% | 1014.9 hPa | 0 mm | - | - | - |
| 1777617327 | 16.11° C | 67% | 1014.9 hPa | 0 mm | - | - | - |
| 1777603519 | 24.44° C | 45% | 1013.7 hPa | 0 mm | - | - | - |
| 1777601118 | 27.78° C | 42% | 1013.4 hPa | 0 mm | - | - | - |
| 1777596950 | 29.44° C | 39% | 1013.3 hPa | 0 mm | - | - | - |
| 1777595145 | 30° C | 39% | 1013.3 hPa | 0 mm | - | - | - |
| 1777590919 | 30° C | 39% | 1013.8 hPa | 0 mm | - | - | - |
| 1777583717 | 28.89° C | 42% | 1015.2 hPa | 0 mm | - | - | - |
| 1777581316 | 27.22° C | 48% | 1015.5 hPa | 0 mm | - | - | - |
| 1777573528 | 23.33° C | 56% | 1016.9 hPa | 0 mm | - | - | - |
| 1777569918 | 21.11° C | 62% | 1017.1 hPa | 0 mm | - | - | - |
| 1777568130 | 20° C | 64% | 1017.2 hPa | 0 mm | - | - | - |
| 1777565730 | 18.33° C | 68% | 1017.2 hPa | 0 mm | - | - | - |
| 1777557318 | 11.67° C | 94% | 1016.7 hPa | 0 mm | - | - | - |
| 1777556743 | 11.67° C | 94% | 1016.6 hPa | 0 mm | - | - | - |
| 1777554917 | 11.11° C | 93% | 1016.5 hPa | 0 mm | - | - | - |
| 1777551327 | 11.67° C | 88% | 1016.5 hPa | 0 mm | - | - | - |
| 1777548349 | 12.22° C | 84% | 1016.7 hPa | 0 mm | - | - | - |
| 1777547715 | 12.22° C | 84% | 1016.7 hPa | 0 mm | - | - | - |
| 1777545968 | 12.78° C | 84% | 1016.7 hPa | 0 mm | - | - | - |
| 1777540531 | 13.89° C | 78% | 1017.3 hPa | 0 mm | - | - | - |
| 1777532735 | 16.67° C | 64% | 1017.6 hPa | 0 mm | - | - | - |
| 1777532119 | 17.22° C | 63% | 1017.6 hPa | 0 mm | - | - | - |
| 1777527931 | 17.78° C | 63% | 1017.8 hPa | 0 mm | - | - | - |
| 1777521324 | 20° C | 60% | 1017.2 hPa | 0 mm | - | - | - |
* Rain latest hour (hover to see other rain measurements)
** Current wind speed in m/s (hover to see current wind gust speed)